Tindbinbilla Nature Rese, Australia

3:16 PM AEDT on January 18, 2017 (GMT +1100)
Kambah west | | Change Station

Elev 2014 ft 35.39 °S, 149.05 °E | Updated 10 seconds ago

Partly Cloudy
Partly Cloudy
95.0 °F
Feels Like 91 °F
N
5.3
Wind Variable Wind from NNW

Today
High -- | Low -- °F
--% Chance of Precip.
Yesterday
High -- | Low -- °F
Precip. -- in
Pressure 29.77 in
Visibility -9999.0 miles
Clouds
Heat Index 91 °F
Dew Point 46 °F
Humidity 19%
Rainfall 0.00 in
Snow Depth Not available.
6:07 AM 8:20 PM
Waning Gibbous, 67% visible
METAR YSCB 180400Z 27018KT CAVOK 37/03 Q1008 NOSIG
Pressure 29.77 in
Visibility -9999.0 miles
Clouds
Heat Index 91 °F
Dew Point 46 °F
Humidity 19%
Rainfall 0.00 in
Snow Depth Not available.
6:07 AM 8:20 PM
Waning Gibbous, 67% visible
METAR YSCB 180400Z 27018KT CAVOK 37/03 Q1008 NOSIG

Get Your Daily Forecast Email!

Thanks for signing up!

Be on the lookout for a verification email in your inbox.

You'll start receiving the daily forecast at 8 AM.

×

10-Day Weather Forecast

×

Almanac

Astronomy

Jan. 18, 2017 Rise Set
Actual Time
Civil Twilight
Nautical Twilight
Astronomical Twilight
Moon
Length of Visible Light
Length of Day
Tomorrow will be .
, % of the Moon is Illuminated

Today's Extremes

Country Highs Country Lows

Community

WunderPhotos

Upload Photos

1,962,540 photos uploaded!

WunderBlog® & News

Nearby

Air Quality

  Air Quality AQ Index Pollutant
Not available.

Snow Depth

Station Depth Elevation

Earthquake Activity

City Distance Mag. Time & Date
Minimum magnitude displayed is 2.5.

Coastal Water Temperatures

Place Temperature

Stations

Nearby Weather Stations

Station Location Temp. Windchill Dew Point Humidity Wind Precip. Elev Updated Type